Platzwetter Flugplatz Wels

Flugwetter Linz LOWL

[Quelle: ADDS]
METAR
LOWL 080250Z AUTO 00000KT 9999 NCD 17/14 Q1021 =
LOWL 072315Z 0800/0824 VRB02KT CAVOK TX31/0814Z TN16/0804Z TEMPO 0802/0806 MIFG TEMPO 0810/0816 09007KT CAVOK
TAF
LOWL 072315Z 0800/0824 VRB02KT CAVOK TX31/0814Z TN16/0804Z TEMPO 0802/0806 MIFG TEMPO 0810/0816 09007KT CAVOK =

Flugwetter Salzburg LOWS

[Quelle: ADDS]
METAR
LOWS 080250Z AUTO 14003KT 9999 NCD 16/15 Q1021 =
LOWS 072315Z 0800/0824 15005KT CAVOK TX30/0815Z TN16/0804Z BECMG 0808/0810 02006KT 9999 FEW060 BECMG 0818/0820 15006KT CAVOK
TAF
LOWS 072315Z 0800/0824 15005KT CAVOK TX30/0815Z TN16/0804Z BECMG 0808/0810 02006KT 9999 FEW060 BECMG 0818/0820 15006KT CAVOK =

Wind - Verlauf

Windrichtung - Verlauf

Temperatur - Verlauf

Relative Luftfeuchtigkeit - Verlauf

Luftdruck - Verlauf

Cookies erleichtern die Bereitstellung unserer Dienste. Mit der Nutzung unserer Dienste erklären Sie sich damit einverstanden, dass wir Cookies verwenden.
Weitere Informationen Ok